createdAt,value
2023-01-13T00:01:08.014Z,8.71
2023-01-13T00:03:35.656Z,8.74
2023-01-13T00:06:05.000Z,8.73
2023-01-13T00:08:33.757Z,8.74
2023-01-13T00:11:01.378Z,8.72
2023-01-13T00:13:29.246Z,8.73
2023-01-13T00:15:58.020Z,8.70
2023-01-13T00:18:25.703Z,8.71
2023-01-13T00:20:59.973Z,8.69
2023-01-13T00:23:30.400Z,8.70
2023-01-13T00:25:58.137Z,8.71
2023-01-13T00:28:26.190Z,8.69
2023-01-13T00:30:53.813Z,8.73
2023-01-13T00:33:21.693Z,8.69
2023-01-13T00:35:56.956Z,8.68
2023-01-13T00:38:24.579Z,8.67
2023-01-13T00:41:00.436Z,8.71
2023-01-13T00:43:28.642Z,8.68
2023-01-13T00:45:56.262Z,8.65
2023-01-13T00:48:24.785Z,8.67
2023-01-13T00:50:56.502Z,8.70
2023-01-13T00:53:24.380Z,8.66
2023-01-13T00:56:01.632Z,8.65
2023-01-13T00:58:29.964Z,8.71
2023-01-13T01:01:01.186Z,8.69
2023-01-13T01:03:29.402Z,8.73
2023-01-13T01:05:57.175Z,8.69
2023-01-13T01:08:25.022Z,8.68
2023-01-13T01:11:03.036Z,8.67
2023-01-13T01:13:30.995Z,8.66
2023-01-13T01:15:58.707Z,8.71
2023-01-13T01:18:26.546Z,8.72
2023-01-13T01:20:54.152Z,8.70
2023-01-13T01:23:21.768Z,8.70
2023-01-13T01:25:49.366Z,8.69
2023-01-13T01:28:19.458Z,8.75
2023-01-13T01:30:47.196Z,8.71
2023-01-13T01:33:14.914Z,8.69
2023-01-13T01:35:42.949Z,8.70
2023-01-13T01:38:10.552Z,8.71
2023-01-13T01:40:38.184Z,8.69
2023-01-13T01:43:31.727Z,8.74
2023-01-13T01:46:00.660Z,8.77
2023-01-13T01:48:29.359Z,8.78
2023-01-13T01:50:57.042Z,8.73
2023-01-13T01:53:25.858Z,8.75
2023-01-13T01:55:53.478Z,8.73
2023-01-13T01:58:22.784Z,8.68
2023-01-13T02:00:50.534Z,8.72
2023-01-13T02:03:19.642Z,8.63
2023-01-13T02:05:47.289Z,8.67
2023-01-13T02:08:15.261Z,8.71
2023-01-13T02:10:43.979Z,8.64
2023-01-13T02:13:13.197Z,8.69
2023-01-13T02:15:45.444Z,8.60
2023-01-13T02:18:31.490Z,8.65
2023-01-13T02:21:43.833Z,8.60
2023-01-13T02:24:57.442Z,8.62
2023-01-13T02:27:54.051Z,8.53
2023-01-13T05:16:54.196Z,7.92
2023-01-13T05:19:21.685Z,7.88
2023-01-13T05:22:07.026Z,7.77
2023-01-13T05:24:52.491Z,7.75
2023-01-13T05:27:19.955Z,7.73
2023-01-13T05:29:47.460Z,7.70
2023-01-13T05:32:16.282Z,7.67
2023-01-13T05:34:43.780Z,7.67
2023-01-13T05:37:13.169Z,7.62
2023-01-13T05:39:54.738Z,7.63
2023-01-13T05:42:39.880Z,7.62
2023-01-13T05:45:08.389Z,7.61
2023-01-13T05:47:37.212Z,7.55
2023-01-13T05:50:07.193Z,7.58
2023-01-13T05:52:34.710Z,7.46
2023-01-13T05:55:02.188Z,7.40
2023-01-13T05:57:29.793Z,7.36
2023-01-13T05:59:57.270Z,7.30
2023-01-13T06:02:26.487Z,7.17
2023-01-13T06:04:55.298Z,7.20
2023-01-13T06:07:22.785Z,7.18
2023-01-13T06:09:50.267Z,7.12
2023-01-13T06:12:17.736Z,7.05
2023-01-13T06:14:45.274Z,6.97
2023-01-13T06:17:14.729Z,6.96
2023-01-13T06:19:43.020Z,6.91
2023-01-13T06:22:16.220Z,6.87
2023-01-13T06:24:44.227Z,6.81
2023-01-13T06:27:11.718Z,6.77
2023-01-13T06:29:39.222Z,6.73
2023-01-13T06:32:08.238Z,6.72
2023-01-13T06:34:36.402Z,6.74
2023-01-13T06:37:04.439Z,6.70
2023-01-13T06:39:33.435Z,6.65
2023-01-13T06:42:18.549Z,6.53
2023-01-13T06:44:46.376Z,6.49
2023-01-13T06:47:14.141Z,6.46
2023-01-13T06:49:41.678Z,6.43
2023-01-13T06:52:09.152Z,6.39
2023-01-13T06:54:38.012Z,6.38
2023-01-13T06:57:05.473Z,6.39
2023-01-13T06:59:34.344Z,6.36
2023-01-13T07:02:02.008Z,6.40
2023-01-13T07:04:29.650Z,6.35
2023-01-13T07:06:57.256Z,6.29
2023-01-13T07:09:24.761Z,6.23
2023-01-13T07:11:53.583Z,6.28
2023-01-13T07:14:38.915Z,6.25
2023-01-13T07:17:06.464Z,6.23
2023-01-13T07:19:33.976Z,6.26
2023-01-13T07:22:01.442Z,6.19
2023-01-13T07:24:28.945Z,6.23
2023-01-13T07:26:57.774Z,6.14
2023-01-13T07:29:25.271Z,6.11
2023-01-13T07:31:52.781Z,6.15
2023-01-13T07:34:20.293Z,6.20
2023-01-13T07:36:47.780Z,6.16
2023-01-13T07:39:15.522Z,6.15
2023-01-13T07:42:00.565Z,6.15
2023-01-13T07:44:29.373Z,6.16
2023-01-13T07:46:56.848Z,6.14
2023-01-13T07:49:24.329Z,6.14
2023-01-13T07:51:51.909Z,6.08
2023-01-13T07:54:25.536Z,6.06
2023-01-13T07:56:59.168Z,6.17
2023-01-13T07:59:26.916Z,6.09
2023-01-13T08:01:55.776Z,6.10
2023-01-13T08:04:23.516Z,6.04
2023-01-13T08:06:50.982Z,6.10
2023-01-13T08:09:18.454Z,6.08
2023-01-13T08:12:05.915Z,6.04
2023-01-13T08:14:33.434Z,6.00
2023-01-13T08:17:02.323Z,6.02
2023-01-13T08:19:29.811Z,6.03
2023-01-13T08:21:57.792Z,5.99
2023-01-13T08:24:25.285Z,5.93
2023-01-13T08:26:52.874Z,6.05
2023-01-13T08:29:20.359Z,6.01
2023-01-13T08:31:47.847Z,6.01
2023-01-13T08:34:16.926Z,6.03
2023-01-13T08:36:44.497Z,6.00
2023-01-13T08:39:11.966Z,6.02
2023-01-13T08:41:58.535Z,6.05
2023-01-13T08:44:27.208Z,6.03
2023-01-13T08:46:55.406Z,6.08
2023-01-13T08:49:25.323Z,6.20
2023-01-13T08:51:52.843Z,6.18
2023-01-13T08:54:20.678Z,6.29
2023-01-13T08:56:48.750Z,6.47
2023-01-13T08:59:17.168Z,6.44
2023-01-13T09:01:45.392Z,6.54
2023-01-13T09:04:16.909Z,6.65
2023-01-13T09:06:46.166Z,6.81
2023-01-13T09:09:13.725Z,6.86
2023-01-13T09:12:00.562Z,6.90
2023-01-13T09:14:30.610Z,6.86
2023-01-13T09:16:58.575Z,6.87
2023-01-13T09:19:26.483Z,6.93
2023-01-13T09:21:55.978Z,6.90
2023-01-13T09:24:24.151Z,6.90
2023-01-13T09:26:52.058Z,6.89
2023-01-13T09:29:19.949Z,6.82
2023-01-13T09:31:47.686Z,6.92
2023-01-13T09:34:34.742Z,6.90
2023-01-13T09:37:04.248Z,6.91
2023-01-13T09:39:32.970Z,6.85
2023-01-13T09:42:22.824Z,6.86
2023-01-13T09:44:53.394Z,6.91
2023-01-13T09:47:28.951Z,7.01
2023-01-13T09:50:03.029Z,6.96
2023-01-13T09:52:31.822Z,6.92
2023-01-13T09:55:01.763Z,7.02
2023-01-13T09:57:31.200Z,7.05
2023-01-13T09:59:59.087Z,7.11
2023-01-13T10:02:34.868Z,7.20
2023-01-13T10:05:11.746Z,7.23
2023-01-13T10:07:44.811Z,7.27
2023-01-13T10:10:17.779Z,7.36
2023-01-13T10:13:02.862Z,7.26
2023-01-13T10:15:30.369Z,7.32
2023-01-13T10:18:05.778Z,7.26
2023-01-13T10:20:37.021Z,7.34
2023-01-13T10:23:12.588Z,7.42
2023-01-13T10:25:56.749Z,7.41
2023-01-13T10:28:25.391Z,7.24
2023-01-13T10:30:53.006Z,7.32
2023-01-13T10:33:26.274Z,7.34
2023-01-13T10:36:00.152Z,7.32
2023-01-13T10:38:31.105Z,7.43
2023-01-13T10:41:00.234Z,7.38
2023-01-13T10:43:28.844Z,7.35
2023-01-13T10:45:59.842Z,7.41
2023-01-13T10:48:36.137Z,7.51
2023-01-13T10:51:20.853Z,7.47
2023-01-13T10:53:54.529Z,7.52
2023-01-13T10:56:23.619Z,7.53
2023-01-13T10:58:51.221Z,7.58
2023-01-13T11:01:26.767Z,7.64
2023-01-13T11:03:55.595Z,7.59
2023-01-13T11:06:26.011Z,7.60
2023-01-13T11:08:58.165Z,7.68
2023-01-13T11:11:38.116Z,7.73
2023-01-13T11:14:26.832Z,7.73
2023-01-13T11:16:56.667Z,7.77
2023-01-13T11:19:25.597Z,7.84
2023-01-13T11:21:57.704Z,7.92
2023-01-13T11:24:31.335Z,7.84
2023-01-13T11:27:01.532Z,7.79
2023-01-13T11:29:31.805Z,7.76
2023-01-13T11:32:04.873Z,7.79
2023-01-13T11:34:36.526Z,7.80
2023-01-13T11:37:09.852Z,7.71
2023-01-13T11:39:46.923Z,7.76
2023-01-13T11:42:24.111Z,7.75
2023-01-13T11:44:58.428Z,7.75
2023-01-13T11:47:27.414Z,7.72
2023-01-13T11:49:55.431Z,7.72
2023-01-13T11:52:25.211Z,7.77
2023-01-13T11:55:06.934Z,7.76
2023-01-13T11:57:50.411Z,7.83
2023-01-13T12:00:37.851Z,7.84
2023-01-13T12:03:22.979Z,7.76
2023-01-13T12:06:02.894Z,7.83
2023-01-13T12:08:51.028Z,7.86
2023-01-13T12:11:26.239Z,7.85
2023-01-13T12:14:07.139Z,7.90
2023-01-13T12:16:34.641Z,7.84
2023-01-13T12:19:17.510Z,7.82
2023-01-13T12:21:56.073Z,7.92
2023-01-13T12:24:27.284Z,7.77
2023-01-13T12:26:59.135Z,7.82
2023-01-13T12:29:30.939Z,7.72
2023-01-13T12:32:01.147Z,7.74
2023-01-13T12:34:44.134Z,7.82
2023-01-13T12:37:17.004Z,7.73
2023-01-13T12:39:46.766Z,7.79
2023-01-13T12:42:37.482Z,7.70
2023-01-13T12:45:22.823Z,7.78
2023-01-13T12:47:50.451Z,7.81
2023-01-13T12:50:41.340Z,7.92
2023-01-13T12:53:38.473Z,7.88
2023-01-13T12:56:40.413Z,7.88
2023-01-13T12:59:38.410Z,8.01
2023-01-13T13:02:27.584Z,7.92
2023-01-13T13:04:57.564Z,7.97
2023-01-13T13:07:33.621Z,7.84
2023-01-13T13:10:02.660Z,7.96
2023-01-13T13:13:09.296Z,8.16
2023-01-13T13:15:38.820Z,8.27
2023-01-13T13:18:25.143Z,8.30
2023-01-13T13:21:04.026Z,8.27
2023-01-13T13:23:43.574Z,8.39
2023-01-13T13:26:25.010Z,8.40
2023-01-13T13:29:16.499Z,8.50
2023-01-13T13:32:20.244Z,8.51
2023-01-13T13:34:53.473Z,8.50
2023-01-13T13:37:32.400Z,8.48
2023-01-13T13:40:20.639Z,8.53
2023-01-13T13:43:11.527Z,8.50
2023-01-13T13:45:56.875Z,8.51
2023-01-13T13:48:27.668Z,8.51
2023-01-13T13:50:58.306Z,8.54
2023-01-13T13:53:28.851Z,8.45
2023-01-13T13:55:59.443Z,8.33
2023-01-13T13:58:27.630Z,8.43
2023-01-13T14:00:56.541Z,8.28
2023-01-13T14:03:27.565Z,8.30
2023-01-13T14:05:57.173Z,8.27
2023-01-13T14:08:25.682Z,8.20
2023-01-13T14:10:53.155Z,8.13
2023-01-13T14:13:23.089Z,7.97
2023-01-13T14:15:51.594Z,8.07
2023-01-13T14:18:20.987Z,8.12
2023-01-13T14:20:56.039Z,7.92
2023-01-13T14:23:27.476Z,7.92
2023-01-13T14:25:55.563Z,7.89
2023-01-13T14:28:26.054Z,7.93
2023-01-13T14:30:54.449Z,7.79
2023-01-13T14:33:35.279Z,7.78
2023-01-13T14:36:24.946Z,7.73
2023-01-13T14:39:26.673Z,7.75
2023-01-13T14:41:54.393Z,7.71
2023-01-13T14:44:25.331Z,7.60
2023-01-13T14:46:55.146Z,7.61
2023-01-13T14:49:25.825Z,7.61
2023-01-13T14:51:54.909Z,7.45
2023-01-13T14:54:44.182Z,7.49
2023-01-13T14:57:16.897Z,7.50
2023-01-13T14:59:51.543Z,7.45
2023-01-13T15:02:46.647Z,7.49
2023-01-13T15:05:34.238Z,7.41
2023-01-13T15:08:06.235Z,7.34
2023-01-13T15:10:38.110Z,7.28
2023-01-13T15:13:07.212Z,7.28
2023-01-13T15:15:36.584Z,7.21
2023-01-13T15:18:11.573Z,7.13
2023-01-13T15:20:40.092Z,7.19
2023-01-13T15:23:09.162Z,7.13
2023-01-13T15:25:40.741Z,7.12
2023-01-13T15:28:11.649Z,7.05
2023-01-13T15:30:39.395Z,7.03
2023-01-13T15:33:06.930Z,7.02
2023-01-13T15:35:34.679Z,7.03
2023-01-13T15:38:02.724Z,6.92
2023-01-13T15:40:33.212Z,6.91
2023-01-13T15:43:18.235Z,6.86
2023-01-13T15:46:04.058Z,6.79
2023-01-13T15:48:32.803Z,6.77
2023-01-13T15:51:01.170Z,6.79
2023-01-13T15:53:29.892Z,6.76
2023-01-13T15:55:59.941Z,6.80
2023-01-13T15:58:29.566Z,6.76
2023-01-13T16:00:57.200Z,6.74
2023-01-13T16:03:24.755Z,6.66
2023-01-13T16:05:52.232Z,6.75
2023-01-13T16:08:21.291Z,6.68
2023-01-13T16:10:49.432Z,6.68
2023-01-13T16:13:18.715Z,6.81
2023-01-13T16:15:48.167Z,6.80
2023-01-13T16:18:17.946Z,6.80
2023-01-13T16:20:45.488Z,6.72
2023-01-13T16:23:13.548Z,6.72
2023-01-13T16:25:43.048Z,6.69
2023-01-13T16:28:19.088Z,6.70
2023-01-13T16:30:46.632Z,6.53
2023-01-13T16:33:14.233Z,6.65
2023-01-13T16:36:08.974Z,6.50
2023-01-13T16:38:29.160Z,6.56
2023-01-13T16:40:57.996Z,6.54
2023-01-13T16:43:27.810Z,6.53
2023-01-13T16:45:55.405Z,6.53
2023-01-13T16:48:22.979Z,6.62
2023-01-13T16:50:50.894Z,6.59
2023-01-13T16:53:18.458Z,6.59
2023-01-13T16:55:46.150Z,6.57
2023-01-13T16:58:17.795Z,6.49
2023-01-13T17:00:47.491Z,6.48
2023-01-13T17:03:15.105Z,6.43
2023-01-13T17:05:43.296Z,6.46
2023-01-13T17:08:12.731Z,6.48
2023-01-13T17:10:40.241Z,6.46
2023-01-13T17:13:16.051Z,6.46
2023-01-13T17:15:45.849Z,6.49
2023-01-13T17:18:13.870Z,6.47
2023-01-13T17:20:41.423Z,6.50
2023-01-13T17:23:08.926Z,6.44
2023-01-13T17:25:36.478Z,6.48
2023-01-13T17:28:04.162Z,6.41
2023-01-13T17:30:31.700Z,6.41
2023-01-13T17:33:00.532Z,6.36
2023-01-13T17:35:28.010Z,6.33
2023-01-13T17:37:55.781Z,6.33
2023-01-13T17:40:24.084Z,6.40
2023-01-13T17:42:51.569Z,6.38
2023-01-13T17:45:19.052Z,6.32
2023-01-13T17:47:47.579Z,6.29
2023-01-13T17:50:18.540Z,6.23
2023-01-13T17:52:46.072Z,6.19
2023-01-13T17:55:13.543Z,6.27
2023-01-13T17:57:41.025Z,6.23
2023-01-13T18:00:12.012Z,6.23
2023-01-13T18:02:39.560Z,6.27
2023-01-13T18:05:07.474Z,6.19
2023-01-13T18:07:36.246Z,6.18
2023-01-13T18:10:03.737Z,6.17
2023-01-13T18:12:31.234Z,6.10
2023-01-13T18:14:58.729Z,6.13
2023-01-13T18:17:26.212Z,6.13
2023-01-13T18:20:11.026Z,6.11
2023-01-13T18:22:57.676Z,6.14
2023-01-13T18:25:42.991Z,6.12
2023-01-13T18:28:10.475Z,6.14
2023-01-13T18:30:38.061Z,6.15
2023-01-13T18:33:05.597Z,6.16
2023-01-13T18:35:33.081Z,6.18
2023-01-13T18:38:01.864Z,6.24
2023-01-13T18:40:29.382Z,6.12
2023-01-13T18:42:55.901Z,6.16
2023-01-13T18:45:25.266Z,6.28
2023-01-13T18:47:53.731Z,6.22
2023-01-13T18:50:22.359Z,6.24
2023-01-13T18:52:49.976Z,6.13
2023-01-13T18:55:18.911Z,6.16
2023-01-13T18:57:46.833Z,6.20
2023-01-13T19:00:16.769Z,6.20
2023-01-13T19:02:44.707Z,6.10
2023-01-13T19:05:12.487Z,6.11
2023-01-13T19:07:40.389Z,6.10
2023-01-13T19:10:09.783Z,6.00
2023-01-13T19:12:38.613Z,6.07
2023-01-13T19:15:07.170Z,6.06
2023-01-13T19:17:35.745Z,5.97
2023-01-13T19:20:05.273Z,6.05
2023-01-13T19:22:34.209Z,5.94
2023-01-13T19:25:03.009Z,5.94
2023-01-13T19:27:30.938Z,5.93
2023-01-13T19:30:00.827Z,5.88
2023-01-13T19:32:30.730Z,5.94
2023-01-13T19:34:59.761Z,5.91
2023-01-13T19:37:30.208Z,5.95
2023-01-13T19:39:58.989Z,5.95
2023-01-13T19:42:43.960Z,5.98
2023-01-13T19:45:27.628Z,5.94
2023-01-13T19:47:55.778Z,6.03
2023-01-13T19:50:23.276Z,6.03
2023-01-13T19:52:50.749Z,6.03
2023-01-13T19:55:19.768Z,6.02
2023-01-13T19:57:48.660Z,5.92
2023-01-13T20:00:20.870Z,5.91
2023-01-13T20:02:49.391Z,5.88
2023-01-13T20:05:21.328Z,5.97
2023-01-13T20:07:49.831Z,5.90
2023-01-13T20:10:17.692Z,5.94
2023-01-13T20:12:45.351Z,5.96
2023-01-13T20:15:12.853Z,5.82
2023-01-13T20:17:41.789Z,5.85
2023-01-13T20:20:11.317Z,5.88
2023-01-13T20:22:38.934Z,5.91
2023-01-13T20:25:07.675Z,5.82
2023-01-13T20:27:35.232Z,5.81
2023-01-13T20:30:02.754Z,5.77
2023-01-13T20:32:30.218Z,5.78
2023-01-13T20:34:59.018Z,5.68
2023-01-13T20:37:26.928Z,5.70
2023-01-13T20:39:55.229Z,5.71
2023-01-13T20:42:31.755Z,5.67
2023-01-13T20:45:00.526Z,5.75
2023-01-13T20:47:29.147Z,5.74
2023-01-13T20:49:56.988Z,5.77
2023-01-13T20:52:26.075Z,5.74
2023-01-13T20:54:53.756Z,5.75
2023-01-13T20:57:21.302Z,5.78
2023-01-13T20:59:48.788Z,5.77
2023-01-13T21:02:17.208Z,5.71
2023-01-13T21:04:44.940Z,5.66
2023-01-13T21:07:12.444Z,5.77
2023-01-13T21:09:41.288Z,5.80
2023-01-13T21:12:26.555Z,5.85
2023-01-13T21:15:11.847Z,5.82
2023-01-13T21:17:56.693Z,5.88
2023-01-13T21:20:24.194Z,5.78
2023-01-13T21:22:51.657Z,5.75
2023-01-13T21:25:20.936Z,5.78
2023-01-13T21:27:48.449Z,5.79
2023-01-13T21:30:17.833Z,5.73
2023-01-13T21:32:46.112Z,5.76
2023-01-13T21:35:14.693Z,5.71
2023-01-13T21:37:43.554Z,5.74
2023-01-13T21:40:13.460Z,5.74
2023-01-13T21:43:00.416Z,5.70
2023-01-13T21:45:45.844Z,5.74
2023-01-13T21:48:13.506Z,5.69
2023-01-13T21:50:42.153Z,5.68
2023-01-13T21:53:09.670Z,5.68
2023-01-13T21:55:37.650Z,5.70
2023-01-13T21:58:11.675Z,5.75
2023-01-13T22:00:40.000Z,5.79
2023-01-13T22:03:08.381Z,5.89
2023-01-13T22:05:36.230Z,5.83
2023-01-13T22:08:03.860Z,5.85
2023-01-13T22:10:31.763Z,5.86
2023-01-13T22:13:20.411Z,5.92
2023-01-13T22:15:49.238Z,5.94
2023-01-13T22:18:18.002Z,5.95
2023-01-13T22:20:45.524Z,5.99
2023-01-13T22:23:13.323Z,5.96
2023-01-13T22:25:40.819Z,6.04
2023-01-13T22:28:09.319Z,6.00
2023-01-13T22:30:37.124Z,5.98
2023-01-13T22:33:05.996Z,6.01
2023-01-13T22:35:33.489Z,5.98
2023-01-13T22:38:00.957Z,5.96
2023-01-13T22:40:28.435Z,6.02
2023-01-13T22:42:55.892Z,6.05
2023-01-13T22:45:23.385Z,6.04
2023-01-13T22:47:50.843Z,6.05
2023-01-13T22:50:20.938Z,6.03
2023-01-13T22:52:48.651Z,6.02
2023-01-13T22:55:16.267Z,6.02
2023-01-13T22:57:48.123Z,5.97
2023-01-13T23:00:18.824Z,5.98
2023-01-13T23:02:47.905Z,5.97
2023-01-13T23:05:15.582Z,6.01
2023-01-13T23:07:44.364Z,6.03
2023-01-13T23:10:12.481Z,6.03
2023-01-13T23:12:39.931Z,5.97
2023-01-13T23:15:08.111Z,6.05
2023-01-13T23:17:35.596Z,6.05
2023-01-13T23:20:03.206Z,6.06
2023-01-13T23:22:30.672Z,6.04
2023-01-13T23:24:59.452Z,6.07
2023-01-13T23:27:26.937Z,6.08
2023-01-13T23:29:56.039Z,6.07
2023-01-13T23:32:23.640Z,6.10
2023-01-13T23:34:54.311Z,6.05
2023-01-13T23:37:21.782Z,6.08
2023-01-13T23:39:49.744Z,6.06
2023-01-13T23:42:18.698Z,6.09
2023-01-13T23:44:46.186Z,5.99
2023-01-13T23:47:13.649Z,6.02
2023-01-13T23:49:41.427Z,6.01
2023-01-13T23:52:08.894Z,6.01
2023-01-13T23:54:36.449Z,6.03
2023-01-13T23:57:03.971Z,5.98
2023-01-13T23:59:32.749Z,6.02
